Newport News Williamsburg International Airport
KPHF : now visible

Airfield :











YOU CAN JOIN US ON...

 
LOGIN :

Register | Disclaimer

   EN    FR    IT 

 









Legend :    VFR   Marginal VFR   IFR   Intensive IFR   Very Intensive IFR
Visi :
Ceiling :
>= 8 km
>= 3000ft
5 to 8 km
1000 to 3000 ft
1500m to 5 km
500 to 1000 ft
800 to 1500m
200 to 500 ft
< 800m
< 200 ft
Symbols :   Thunderstorms  Fog  Heavy snow  Heavy precipitations  Wind > 20 kt






- Airport Elevation : 42 ft
- IATA code : PHF


KPHF - Newport News Williamsburg International

CURRENT METAR :
  • 172254Z 26014G24KT 10SM SCT100 03/M06 A2956 RMK AO2 PK WND 27029/2202 SLP011 T00281061

EXPIRED METARs :
  • 172154Z 27018G32KT 10SM OVC100 04/M06 A2953 RMK AO2 PK WND 26033/2132 SLP998 T00391056
  • 172054Z 27017G32KT 10SM SCT065 OVC080 04/M05 A2949 RMK AO2 PK WND 27032/2013 SLP984 T00441050 53035

TAF KPHF
Valid from the 17 at 18:00 until the 18 at 18:00 UTC


171736Z 1718/1818 25021G34KT P6SM SCT040
FM172100 27020G33KT P6SM BKN060
FM180100 27014G22KT P6SM SCT150
FM180600 27010KT P6SM SKC
KZDC FIR / North America



MET'MAP, your aeronautical weather chart ! - Copyright ORBIFLY December 2007 - Disclaimer

ORBIFLY MET'MAP TEAM :

Programming & Development : Alexandra Zaïnal
Concept & original design : Baudouin d'Aumeries
Assistance for programming : Marc-Olivier Méhu
Technical & hardware support : Manuel Goepfert

Contact : metmap@orbifly.com




SOURCES & CREDITS :

   NOAA       Earth
Advisory